• Join FlightAware (Why Join?)
  • Login
  • US Flag 
10:18PM EDT


 

Airport Tracker/Info


-or-


 

Live Flight TrackerFlight Track Log ✈ FLG3432 ✈ 10-May-2013 ✈ KALB - KMSP

Flight Track Log - Related Links

Times and Time Zones

All times are in EDT time to prevent confusion due to time zone crossing. See the FLG3432 flight status page for this flight to view local times or setup timezone preferences in your user account.

Time Position Orientation Groundspeed Altitude Reporting Facility
EDT Latitude Longitude Course Direction KTS MPH feet Rate Location/Type
06:33AM 42.7714 -73.8092 284° West 169 194 1,200  Level Boston Center
06:34AM 42.8006 -73.8181 347° North 179 206 2,400 1,800 Climbing Boston Center
06:35AM 42.8164 -73.8950 286° West 230 265 4,200 2,100 Climbing Boston Center
06:35AM 42.8344 -73.9436 297° West 277 319 5,700 2,700 Climbing Boston Center
06:36AM 42.8337 -74.3355 283° West  Level FlightAware Approximate
06:36AM 42.8750 -74.0211 306° West 277 319 8,400  Level Boston Center
06:37AM 42.8565 -74.4719 283° West  Level FlightAware Approximate
06:37AM 42.9156 -74.0958 307° West 277 319 10,900  Level Boston Center
06:38AM 42.8898 -74.6021 284° West  Level FlightAware Approximate
06:38AM 42.9725 -74.2022 306° West 297 342 12,500  Level Boston Center
06:39AM 43.0042 -74.3053 293° West 322 371 14,700 2,160 Climbing Boston Center
06:40AM 43.0164 -74.4478 277° West 340 391 16,900 1,980 Climbing Boston Center
06:41AM 43.0267 -74.5675 277° West 357 411 18,700 1,800 Climbing Boston Center
06:42AM 43.0403 -74.7214 277° West 362 417 20,600 1,680 Climbing Boston Center
06:43AM 43.0522 -74.8581 277° West 367 422 22,100 1,560 Climbing Boston Center
06:44AM 43.0656 -75.0008 277° West 373 429 23,800 1,560 Climbing Boston Center
06:45AM 43.0769 -75.1461 276° West 384 442 25,300 1,320 Climbing Boston Center
06:46AM 43.0900 -75.2975 277° West 390 449 26,500 1,200 Climbing Boston Center
06:47AM 43.1006 -75.4489 276° West 396 456 27,700 1,320 Climbing Boston Center
06:48AM 43.1153 -75.6003 278° West 407 468 29,200 1,560 Climbing Boston Center
06:49AM 43.1275 -75.7517 276° West 407 468 30,900 1,620 Climbing Boston Center
06:51AM 43.1408 -75.9561 275° West 394 453 33,300 1,380 Climbing Cleveland Center
06:52AM 43.1528 -76.0950 277° West 382 440 34,400 1,140 Climbing Cleveland Center
06:53AM 43.1578 -76.2311 273° West 371 427 35,600 780 Climbing Cleveland Center
06:54AM 43.1464 -76.3686 264° West 366 421 36,000 180 Climbing Cleveland Center
06:55AM 43.1347 -76.5117 264° West 371 427 36,000 -60 Level Cleveland Center
06:56AM 43.1231 -76.6603 264° West 390 449 35,900  Descending Cleveland Center
06:57AM 43.1075 -76.8178 262° West 390 449 36,000  Climbing Cleveland Center
06:58AM 43.0956 -76.9608 264° West 390 449 36,000  Level Cleveland Center
06:59AM 43.0811 -77.1011 262° West 390 449 36,000  Level Cleveland Center
07:00AM 43.0686 -77.2439 263° West 390 449 36,000  Level Cleveland Center
07:01AM 43.0558 -77.3867 263° West 390 449 36,000  Level Cleveland Center
07:02AM 43.0408 -77.5267 262° West 385 443 36,000  Level Cleveland Center
07:03AM 43.0278 -77.6664 263° West 380 437 36,000  Level Cleveland Center
07:04AM 43.0147 -77.8119 263° West 385 443 36,000  Level Cleveland Center
07:05AM 43.0011 -77.9458 262° West 392 451 36,000  Level Cleveland Center
07:06AM 42.9878 -78.0911 263° West 392 451 36,000  Level Cleveland Center
07:07AM 42.9739 -78.2308 262° West 387 445 36,000  Level Cleveland Center
07:08AM 42.9600 -78.3619 262° West 374 430 36,000  Level Cleveland Center
07:09AM 42.9478 -78.4872 262° West 355 409 36,000  Level Cleveland Center
07:10AM 42.9353 -78.6181 263° West 348 400 36,000  Level Cleveland Center
07:11AM 42.9625 -78.7478 286° West 353 406 36,000  Level Cleveland Center
07:12AM 43.0064 -78.8856 294° West 366 421 36,000  Level Cleveland Center
07:12AM 43.0167 -78.9000 314° West 390 449 36,000  Level Toronto Center
07:13AM 43.0500 -79.0667 285° West 400 460 36,000  Level Toronto Center
07:14AM 43.1000 -79.2000 297° West 400 460 36,000  Level Toronto Center
07:15AM 43.1333 -79.3333 289° West 400 460 36,000  Level Toronto Center
07:16AM 43.1833 -79.4667 297° West 390 449 36,000  Level Toronto Center
07:17AM 43.2167 -79.6167 287° West 390 449 36,000  Level Toronto Center
07:18AM 43.2667 -79.7500 297° West 390 449 36,000  Level Toronto Center
07:19AM 43.3167 -79.8833 297° West 400 460 36,000  Level Toronto Center
07:20AM 43.3500 -80.0167 289° West 400 460 36,000  Level Toronto Center
07:21AM 43.3833 -80.1667 287° West 390 449 36,000  Level Toronto Center
07:22AM 43.4333 -80.3000 297° West 400 460 36,000 300 Level Toronto Center
07:23AM 43.4833 -80.4333 297° West 400 460 36,600 780 Climbing Toronto Center
07:24AM 43.5333 -80.5833 295° West 400 460 37,600 600 Climbing Toronto Center
07:25AM 43.5667 -80.7167 289° West 390 449 37,900 180 Climbing Toronto Center
07:26AM 43.6167 -80.8500 297° West 400 460 38,000  Climbing Toronto Center
07:27AM 43.6500 -81.0000 287° West 410 472 38,000  Level Toronto Center
07:28AM 43.7167 -81.1500 302° West 410 472 38,000  Level Toronto Center
07:29AM 43.7500 -81.2667 292° West 400 460 38,000  Level Toronto Center
07:30AM 43.8000 -81.4167 295° West 390 449 38,000  Level Toronto Center
07:31AM 43.8500 -81.5500 298° West 390 449 38,000  Level Toronto Center
07:32AM 43.9000 -81.7000 295° West 390 449 38,000  Level Toronto Center
07:33AM 43.9500 -81.8333 298° West 390 449 38,000  Level Toronto Center
07:34AM 43.9833 -81.9500 292° West 390 449 38,000  Level Toronto Center
07:35AM 44.0333 -82.1167 293° West 400 460 38,000  Level Toronto Center
07:36AM 44.0667 -82.2333 292° West 390 449 38,000  Level Toronto Center
07:37AM 44.1167 -82.3667 298° West 390 449 38,000  Level Toronto Center
07:38AM 44.1669 -82.5022 297° West 386 444 38,000  Level Minneapolis Center
07:39AM 44.2119 -82.6439 294° West 395 455 38,000  Level Minneapolis Center
07:40AM 44.2578 -82.7872 294° West 404 465 38,000  Level Minneapolis Center
07:41AM 44.2994 -82.9333 292° West 406 467 38,000  Level Minneapolis Center
07:42AM 44.3111 -83.0828 276° West 393 452 38,000  Level Minneapolis Center
07:43AM 44.3319 -83.2625 279° West 390 449 38,000  Level Minneapolis Center
07:44AM 44.3467 -83.4139 278° West 393 452 38,000  Level Minneapolis Center
07:45AM 44.3631 -83.5636 279° West 392 451 38,000  Level Minneapolis Center
07:46AM 44.3789 -83.7142 278° West 392 451 38,000 -60 Level Minneapolis Center
07:47AM 44.3947 -83.8647 278° West 393 452 37,900  Descending Minneapolis Center
07:48AM 44.4097 -84.0158 278° West 393 452 38,000  Climbing Minneapolis Center
07:49AM 44.4244 -84.1675 278° West 393 452 38,000  Level Minneapolis Center
07:50AM 44.4386 -84.3211 277° West 399 459 38,000  Level Minneapolis Center
07:51AM 44.4539 -84.4750 278° West 399 459 38,000  Level Minneapolis Center
07:52AM 44.4686 -84.6294 278° West 402 463 38,000  Level Minneapolis Center
07:53AM 44.4833 -84.7847 278° West 402 463 38,000  Level Minneapolis Center
07:54AM 44.4975 -84.9406 277° West 405 466 38,000  Level Minneapolis Center
07:55AM 44.5119 -85.0978 277° West 407 468 38,000  Level Minneapolis Center
07:56AM 44.5253 -85.2544 277° West 406 467 38,000  Level Minneapolis Center
07:57AM 44.5392 -85.4100 277° West 405 466 38,000  Level Minneapolis Center
07:58AM 44.5556 -85.6028 277° West 412 474 38,000  Level Minneapolis Center
07:59AM 44.5686 -85.7631 277° West 412 474 38,000  Level Minneapolis Center
08:00AM 44.5822 -85.9233 277° West 411 473 38,000  Level Minneapolis Center
08:01AM 44.5950 -86.0878 276° West 418 481 38,000  Level Minneapolis Center
08:02AM 44.6086 -86.2564 277° West 425 489 38,000  Level Minneapolis Center
08:03AM 44.6217 -86.4264 276° West 433 498 38,000  Level Minneapolis Center
08:04AM 44.6344 -86.5953 276° West 434 499 38,000  Level Minneapolis Center
08:05AM 44.6469 -86.7644 276° West 435 501 38,000  Level Minneapolis Center
08:06AM 44.6600 -86.9336 276° West 436 502 38,000  Level Minneapolis Center
08:07AM 44.6719 -87.1019 276° West 434 499 38,000  Level Minneapolis Center
08:08AM 44.6842 -87.2706 276° West 434 499 38,000  Level Minneapolis Center
08:09AM 44.6947 -87.4364 275° West 430 495 38,000  Level Minneapolis Center
08:10AM 44.7058 -87.6025 275° West 429 494 38,000  Level Minneapolis Center
08:11AM 44.7181 -87.7689 276° West 428 493 38,000  Level Minneapolis Center
08:12AM 44.7281 -87.9483 275° West 431 496 38,000  Level Minneapolis Center
08:13AM 44.7389 -88.1158 275° West 432 497 38,000  Level Minneapolis Center
08:14AM 44.7489 -88.2842 275° West 432 497 38,000  Level Minneapolis Center
08:15AM 44.7606 -88.4803 275° West 432 497 38,000  Level Minneapolis Center
08:16AM 44.7708 -88.6453 275° West 427 491 38,000  Level Minneapolis Center
08:18AM 44.7797 -88.8100 274° West 424 488 38,000  Level Minneapolis Center
08:19AM 44.7886 -88.9744 274° West 423 487 38,000  Level Minneapolis Center
08:20AM 44.7975 -89.1411 274° West 426 490 38,000 -300 Level Minneapolis Center
08:21AM 44.8053 -89.3044 274° West 422 486 37,400 -1,020 Descending Minneapolis Center
08:22AM 44.8139 -89.4631 274° West 408 470 36,000 -1,440 Descending Minneapolis Center
08:23AM 44.8214 -89.6211 274° West 405 466 34,500 -1,620 Descending Minneapolis Center
08:24AM 44.8314 -89.8125 274° West 414 476 32,800 -1,260 Descending Minneapolis Center
08:25AM 44.8381 -89.9797 273° West 422 486 32,000 -420 Descending Minneapolis Center
08:26AM 44.8456 -90.1492 274° West 430 495 32,000  Level Minneapolis Center
08:27AM 44.8531 -90.3178 274° West 432 497 32,000 -420 Level Minneapolis Center
08:28AM 44.8644 -90.4856 276° West 429 494 31,200 -1,380 Descending Minneapolis Center
08:29AM 44.8844 -90.6556 279° West 435 501 29,200 -1,920 Descending Minneapolis Center
08:30AM 44.9017 -90.8225 278° West 430 495 27,300 -2,040 Descending Minneapolis Center
08:31AM 44.9208 -91.0089 278° West 421 484 25,100 -2,040 Descending Minneapolis Center
08:32AM 44.9367 -91.1653 278° West 410 472 23,200 -1,860 Descending Minneapolis Center
08:33AM 44.9522 -91.3211 278° West 405 466 21,300 -1,860 Descending Minneapolis Center
08:34AM 44.9681 -91.4722 278° West 398 458 19,400 -1,860 Descending Minneapolis Center
08:35AM 44.9842 -91.6333 278° West 385 443 17,500 -1,680 Descending Minneapolis Center
08:36AM 44.9986 -91.7614 279° West 371 427 16,000 -1,620 Descending Minneapolis Center
08:37AM 45.0122 -91.9036 278° West 368 423 14,300 -1,860 Descending Minneapolis Center
08:38AM 45.0289 -92.0750 278° West 371 427 12,300 -1,620 Descending Minneapolis Center
08:39AM 45.0422 -92.2153 278° West 362 417 11,000 -720 Descending Minneapolis Center
08:40AM 45.0389 -92.3564 268° West 364 419 10,900 -300 Descending Minneapolis Center
08:41AM 45.0172 -92.4903 257° West 348 400 10,500 -960 Descending Minneapolis Center
08:42AM 44.9733 -92.5900 238° Southwest 308 354 9,000 -1,260 Descending Minneapolis Center
08:43AM 44.9153 -92.6708 225° Southwest 294 338 8,000 -1,320 Descending Minneapolis Center
08:44AM 44.8597 -92.7569 228° Southwest 249 287 6,300 -1,440 Descending Minneapolis Center
08:45AM 44.8264 -92.8347 239° Southwest 234 269 5,100 -1,140 Descending Minneapolis Center
08:46AM 44.8186 -92.9164 262° West 217 250 4,000 -900 Descending Minneapolis Center
08:47AM 44.8164 -92.9958 268° West 207 238 3,300 -720 Descending Minneapolis Center